createdAt,value
2019-05-06T00:00:51.980Z,936.47
2019-05-06T00:01:38.943Z,936.47
2019-05-06T00:02:38.943Z,936.46
2019-05-06T00:03:38.927Z,936.45
2019-05-06T00:04:39.368Z,936.48
2019-05-06T00:05:38.905Z,936.44
2019-05-06T00:06:38.898Z,936.47
2019-05-06T00:07:38.883Z,936.42
2019-05-06T00:08:38.901Z,936.39
2019-05-06T00:09:38.880Z,936.40
2019-05-06T00:10:39.222Z,936.44
2019-05-06T00:11:38.873Z,936.42
2019-05-06T00:12:38.871Z,936.43
2019-05-06T00:13:38.847Z,936.40
2019-05-06T00:14:38.903Z,936.39
2019-05-06T00:15:38.837Z,936.42
2019-05-06T00:16:39.274Z,936.41
2019-05-06T00:17:38.867Z,936.43
2019-05-06T00:18:38.819Z,936.41
2019-05-06T00:19:38.839Z,936.41
2019-05-06T00:20:38.832Z,936.40
2019-05-06T00:21:38.790Z,936.43
2019-05-06T00:22:39.067Z,936.42
2019-05-06T00:23:38.798Z,936.43
2019-05-06T00:24:38.774Z,936.41
2019-05-06T00:25:38.787Z,936.41
2019-05-06T00:26:38.767Z,936.40
2019-05-06T00:27:38.751Z,936.42
2019-05-06T00:28:39.150Z,936.42
2019-05-06T00:29:38.755Z,936.41
2019-05-06T00:30:38.738Z,936.41
2019-05-06T00:31:38.742Z,936.41
2019-05-06T00:32:38.751Z,936.43
2019-05-06T00:33:38.752Z,936.39
2019-05-06T00:34:39.156Z,936.39
2019-05-06T00:35:38.749Z,936.34
2019-05-06T00:36:38.710Z,936.34
2019-05-06T00:37:38.707Z,936.33
2019-05-06T00:38:38.713Z,936.32
2019-05-06T00:39:38.723Z,936.34
2019-05-06T00:40:39.038Z,936.38
2019-05-06T00:41:38.671Z,936.39
2019-05-06T00:42:38.670Z,936.37
2019-05-06T00:43:38.676Z,936.35
2019-05-06T00:44:38.649Z,936.35
2019-05-06T00:45:38.674Z,936.32
2019-05-06T00:46:39.006Z,936.31
2019-05-06T00:47:38.634Z,936.29
2019-05-06T00:48:38.639Z,936.30
2019-05-06T00:49:38.637Z,936.31
2019-05-06T00:50:38.635Z,936.29
2019-05-06T00:51:38.619Z,936.29
2019-05-06T00:52:38.949Z,936.31
2019-05-06T00:53:38.604Z,936.31
2019-05-06T00:54:38.584Z,936.37
2019-05-06T00:55:38.594Z,936.38
2019-05-06T00:56:38.595Z,936.33
2019-05-06T00:57:38.619Z,936.33
2019-05-06T00:58:38.821Z,936.33
2019-05-06T00:59:38.579Z,936.32
2019-05-06T01:00:38.591Z,936.30
2019-05-06T01:01:38.537Z,936.32
2019-05-06T01:02:38.549Z,936.30
2019-05-06T01:03:39.000Z,936.30
2019-05-06T01:04:38.548Z,936.32
2019-05-06T01:05:38.516Z,936.29
2019-05-06T01:06:38.536Z,936.31
2019-05-06T01:07:38.524Z,936.28
2019-05-06T01:08:38.568Z,936.31
2019-05-06T01:09:38.858Z,936.32
2019-05-06T01:10:38.504Z,936.33
2019-05-06T01:11:38.496Z,936.37
2019-05-06T01:12:38.465Z,936.37
2019-05-06T01:13:38.489Z,936.37
2019-05-06T01:14:38.729Z,936.37
2019-05-06T01:15:38.464Z,936.37
2019-05-06T01:16:38.442Z,936.39
2019-05-06T01:17:38.460Z,936.37
2019-05-06T01:18:38.436Z,936.38
2019-05-06T01:19:38.934Z,936.41
2019-05-06T01:20:38.453Z,936.40
2019-05-06T01:21:38.454Z,936.34
2019-05-06T01:22:38.413Z,936.35
2019-05-06T01:23:38.432Z,936.31
2019-05-06T01:24:38.768Z,936.32
2019-05-06T01:25:38.403Z,936.29
2019-05-06T01:26:38.394Z,936.27
2019-05-06T01:27:38.398Z,936.27
2019-05-06T01:28:38.386Z,936.27
2019-05-06T01:29:38.667Z,936.27
2019-05-06T01:30:38.373Z,936.27
2019-05-06T01:31:42.709Z,936.26
2019-05-06T01:32:38.378Z,936.24
2019-05-06T01:33:38.367Z,936.23
2019-05-06T01:34:38.705Z,936.20
2019-05-06T01:35:38.329Z,936.16
2019-05-06T01:36:38.373Z,936.18
2019-05-06T01:37:38.333Z,936.22
2019-05-06T01:38:38.348Z,936.19
2019-05-06T01:39:38.298Z,936.23
2019-05-06T01:40:38.570Z,936.23
2019-05-06T01:41:38.344Z,936.25
2019-05-06T01:42:38.367Z,936.27
2019-05-06T01:43:38.295Z,936.25
2019-05-06T01:44:38.293Z,936.27
2019-05-06T01:45:38.289Z,936.25
2019-05-06T01:46:38.592Z,936.22
2019-05-06T01:47:38.280Z,936.21
2019-05-06T01:48:38.242Z,936.20
2019-05-06T01:49:38.261Z,936.21
2019-05-06T01:50:38.309Z,936.19
2019-05-06T01:51:38.242Z,936.19
2019-05-06T01:52:38.595Z,936.18
2019-05-06T01:53:38.216Z,936.19
2019-05-06T01:54:38.216Z,936.15
2019-05-06T01:55:38.216Z,936.18
2019-05-06T01:56:38.216Z,936.13
2019-05-06T01:57:38.208Z,936.12
2019-05-06T01:58:38.546Z,936.10
2019-05-06T01:59:38.207Z,936.12
2019-05-06T02:00:39.570Z,936.13
2019-05-06T02:01:38.187Z,936.16
2019-05-06T02:02:38.171Z,936.17
2019-05-06T02:03:38.186Z,936.19
2019-05-06T02:04:38.415Z,936.14
2019-05-06T02:05:38.161Z,936.16
2019-05-06T02:06:38.176Z,936.16
2019-05-06T02:07:38.151Z,936.18
2019-05-06T02:08:38.188Z,936.20
2019-05-06T02:09:38.136Z,936.18
2019-05-06T02:10:38.367Z,936.18
2019-05-06T02:11:38.121Z,936.17
2019-05-06T02:12:38.103Z,936.16
2019-05-06T02:13:38.119Z,936.15
2019-05-06T02:14:38.105Z,936.13
2019-05-06T02:15:38.095Z,936.09
2019-05-06T02:16:38.536Z,936.10
2019-05-06T02:17:38.089Z,936.07
2019-05-06T02:18:38.067Z,936.07
2019-05-06T02:19:38.056Z,936.11
2019-05-06T02:20:38.066Z,936.11
2019-05-06T02:21:38.035Z,936.15
2019-05-06T02:22:38.441Z,936.17
2019-05-06T02:23:38.102Z,936.16
2019-05-06T02:24:38.020Z,936.18
2019-05-06T02:25:38.022Z,936.18
2019-05-06T02:26:38.019Z,936.18
2019-05-06T02:27:37.997Z,936.17
2019-05-06T02:28:38.305Z,936.16
2019-05-06T02:29:38.004Z,936.13
2019-05-06T02:30:38.010Z,936.16
2019-05-06T02:31:38.026Z,936.17
2019-05-06T02:32:37.975Z,936.11
2019-05-06T02:33:38.008Z,936.09
2019-05-06T02:34:38.289Z,936.11
2019-05-06T02:35:37.955Z,936.06
2019-05-06T02:36:37.969Z,936.09
2019-05-06T02:37:37.949Z,936.07
2019-05-06T02:38:46.486Z,936.07
2019-05-06T02:39:37.982Z,936.08
2019-05-06T02:40:38.312Z,936.05
2019-05-06T02:41:37.899Z,936.04
2019-05-06T02:42:37.918Z,936.07
2019-05-06T02:43:37.921Z,936.04
2019-05-06T02:44:37.898Z,936.06
2019-05-06T02:45:37.880Z,936.06
2019-05-06T02:46:38.233Z,936.05
2019-05-06T02:47:37.887Z,936.06
2019-05-06T02:48:37.874Z,936.05
2019-05-06T02:49:37.866Z,936.08
2019-05-06T02:50:37.856Z,936.05
2019-05-06T02:51:38.360Z,936.01
2019-05-06T02:52:37.826Z,936.03
2019-05-06T02:53:37.837Z,936.01
2019-05-06T02:54:37.832Z,936.03
2019-05-06T02:55:37.850Z,936.00
2019-05-06T02:56:37.854Z,935.97
2019-05-06T02:57:38.316Z,935.98
2019-05-06T02:58:37.799Z,935.97
2019-05-06T02:59:37.816Z,935.97
2019-05-06T03:00:37.842Z,935.93
2019-05-06T03:01:37.803Z,935.96
2019-05-06T03:02:43.400Z,935.95
2019-05-06T03:03:37.776Z,935.93
2019-05-06T03:04:37.767Z,935.94
2019-05-06T03:05:37.770Z,935.92
2019-05-06T03:06:37.762Z,935.90
2019-05-06T03:07:38.103Z,935.94
2019-05-06T03:08:37.760Z,935.92
2019-05-06T03:09:37.721Z,935.95
2019-05-06T03:10:37.744Z,935.93
2019-05-06T03:11:37.757Z,935.93
2019-05-06T03:12:38.039Z,935.94
2019-05-06T03:13:37.756Z,935.95
2019-05-06T03:14:37.708Z,935.94
2019-05-06T03:15:37.713Z,935.94
2019-05-06T03:16:37.685Z,935.95
2019-05-06T03:17:38.046Z,935.94
2019-05-06T03:18:37.686Z,935.96
2019-05-06T03:19:37.681Z,935.96
2019-05-06T03:20:37.687Z,935.91
2019-05-06T03:21:37.663Z,935.93
2019-05-06T03:22:37.952Z,935.92
2019-05-06T03:23:37.633Z,935.93
2019-05-06T03:24:37.633Z,935.90
2019-05-06T03:25:37.639Z,935.92
2019-05-06T03:26:37.639Z,935.92
2019-05-06T03:27:38.030Z,935.89
2019-05-06T03:28:37.636Z,935.87
2019-05-06T03:29:37.622Z,935.85
2019-05-06T03:30:37.638Z,935.89
2019-05-06T03:31:37.596Z,935.83
2019-05-06T03:33:14.288Z,935.81
2019-05-06T03:33:55.390Z,935.79
2019-05-06T03:34:58.742Z,935.76
2019-05-06T03:35:52.230Z,935.75
2019-05-06T03:36:41.232Z,935.69
2019-05-06T03:37:37.901Z,935.67
2019-05-06T03:38:37.555Z,935.69
2019-05-06T03:39:37.542Z,935.69
2019-05-06T03:40:41.792Z,935.69
2019-05-06T03:41:37.514Z,935.68
2019-05-06T03:42:37.895Z,935.66
2019-05-06T03:43:37.502Z,935.71
2019-05-06T03:44:37.499Z,935.68
2019-05-06T03:45:37.497Z,935.64
2019-05-06T03:46:37.537Z,935.68
2019-05-06T03:47:37.836Z,935.63
2019-05-06T03:48:37.484Z,935.66
2019-05-06T03:49:37.462Z,935.66
2019-05-06T03:50:37.470Z,935.63
2019-05-06T03:51:37.459Z,935.62
2019-05-06T03:52:37.656Z,935.61
2019-05-06T03:53:37.424Z,935.61
2019-05-06T03:54:37.421Z,935.62
2019-05-06T03:55:37.433Z,935.61
2019-05-06T03:56:37.416Z,935.64
2019-05-06T03:57:37.769Z,935.61
2019-05-06T03:58:37.425Z,935.64
2019-05-06T03:59:37.397Z,935.60
2019-05-06T04:00:37.387Z,935.60
2019-05-06T04:01:37.377Z,935.60
2019-05-06T04:02:39.564Z,935.58
2019-05-06T04:03:47.205Z,935.59
2019-05-06T04:04:37.342Z,935.58
2019-05-06T04:05:37.357Z,935.60
2019-05-06T04:06:37.353Z,935.54
2019-05-06T04:07:37.347Z,935.57
2019-05-06T04:08:37.342Z,935.62
2019-05-06T04:09:37.988Z,935.58
2019-05-06T04:10:37.364Z,935.60
2019-05-06T04:11:37.299Z,935.58
2019-05-06T04:12:37.317Z,935.55
2019-05-06T04:13:37.300Z,935.53
2019-05-06T04:14:37.301Z,935.55
2019-05-06T04:15:37.823Z,935.53
2019-05-06T04:16:37.283Z,935.49
2019-05-06T04:17:37.254Z,935.52
2019-05-06T04:18:37.260Z,935.53
2019-05-06T04:19:37.254Z,935.49
2019-05-06T04:20:37.246Z,935.50
2019-05-06T04:21:37.876Z,935.47
2019-05-06T04:22:37.251Z,935.49
2019-05-06T04:23:37.240Z,935.44
2019-05-06T04:24:37.225Z,935.44
2019-05-06T04:25:37.218Z,935.43
2019-05-06T04:26:37.203Z,935.44
2019-05-06T04:27:38.674Z,935.41
2019-05-06T04:28:37.202Z,935.46
2019-05-06T04:29:37.187Z,935.43
2019-05-06T04:30:37.181Z,935.42
2019-05-06T04:31:37.172Z,935.43
2019-05-06T04:32:37.171Z,935.38
2019-05-06T04:33:37.714Z,935.38
2019-05-06T04:34:37.166Z,935.37
2019-05-06T04:35:37.155Z,935.36
2019-05-06T04:36:37.180Z,935.35
2019-05-06T04:37:37.133Z,935.34
2019-05-06T04:38:37.101Z,935.33
2019-05-06T04:39:37.726Z,935.33
2019-05-06T04:40:37.103Z,935.33
2019-05-06T04:41:37.150Z,935.31
2019-05-06T04:42:37.097Z,935.26
2019-05-06T04:43:37.087Z,935.27
2019-05-06T04:44:37.081Z,935.26
2019-05-06T04:45:37.641Z,935.25
2019-05-06T04:46:37.165Z,935.24
2019-05-06T04:47:37.066Z,935.24
2019-05-06T04:48:37.103Z,935.28
2019-05-06T04:49:37.067Z,935.22
2019-05-06T04:50:37.039Z,935.22
2019-05-06T04:51:37.640Z,935.18
2019-05-06T04:52:37.015Z,935.20
2019-05-06T04:53:37.009Z,935.16
2019-05-06T04:54:37.004Z,935.17
2019-05-06T04:55:37.001Z,935.19
2019-05-06T04:56:37.006Z,935.20
2019-05-06T04:57:39.300Z,935.22
2019-05-06T04:58:36.964Z,935.20
2019-05-06T04:59:36.989Z,935.19
2019-05-06T05:00:36.975Z,935.19
2019-05-06T05:01:36.968Z,935.21
2019-05-06T05:02:37.004Z,935.22
2019-05-06T05:03:37.340Z,935.22
2019-05-06T05:04:37.174Z,935.23
2019-05-06T05:05:36.972Z,935.25
2019-05-06T05:06:36.931Z,935.27
2019-05-06T05:07:36.910Z,935.30
2019-05-06T05:08:37.221Z,935.30
2019-05-06T05:09:36.918Z,935.29
2019-05-06T05:10:36.882Z,935.32
2019-05-06T05:11:36.886Z,935.31
2019-05-06T05:12:36.865Z,935.30
2019-05-06T05:13:37.222Z,935.29
2019-05-06T05:14:36.908Z,935.31
2019-05-06T05:15:36.871Z,935.31
2019-05-06T05:16:36.897Z,935.30
2019-05-06T05:17:36.845Z,935.30
2019-05-06T05:18:37.057Z,935.31
2019-05-06T05:19:36.838Z,935.30
2019-05-06T05:20:40.759Z,935.28
2019-05-06T05:21:36.831Z,935.33
2019-05-06T05:22:36.825Z,935.32
2019-05-06T05:23:37.260Z,935.34
2019-05-06T05:24:36.805Z,935.30
2019-05-06T05:25:36.773Z,935.38
2019-05-06T05:26:36.781Z,935.34
2019-05-06T05:27:36.768Z,935.37
2019-05-06T05:28:37.108Z,935.36
2019-05-06T05:29:36.804Z,935.36
2019-05-06T05:30:36.743Z,935.32
2019-05-06T05:31:36.751Z,935.29
2019-05-06T05:32:36.720Z,935.31
2019-05-06T05:33:37.044Z,935.29
2019-05-06T05:34:40.395Z,935.29
2019-05-06T05:35:36.733Z,935.28
2019-05-06T05:36:36.727Z,935.25
2019-05-06T05:37:36.716Z,935.25
2019-05-06T05:38:37.049Z,935.27
2019-05-06T05:39:36.679Z,935.27
2019-05-06T05:40:36.718Z,935.27
2019-05-06T05:41:36.672Z,935.27
2019-05-06T05:42:36.673Z,935.24
2019-05-06T05:43:39.378Z,935.26
2019-05-06T05:44:36.676Z,935.24
2019-05-06T05:45:36.664Z,935.21
2019-05-06T05:46:36.651Z,935.20
2019-05-06T05:47:36.656Z,935.22
2019-05-06T05:48:36.921Z,935.21
2019-05-06T05:49:36.611Z,935.15
2019-05-06T05:50:36.603Z,935.13
2019-05-06T05:51:36.618Z,935.12
2019-05-06T05:52:36.587Z,935.10
2019-05-06T05:53:36.844Z,935.09
2019-05-06T05:54:36.569Z,935.09
2019-05-06T05:55:36.570Z,935.07
2019-05-06T05:56:36.570Z,935.07
2019-05-06T05:57:36.554Z,935.08
2019-05-06T05:58:36.549Z,935.06
2019-05-06T05:59:36.843Z,935.10
2019-05-06T06:00:36.567Z,935.11
2019-05-06T06:01:36.542Z,935.09
2019-05-06T06:02:36.515Z,935.08
2019-05-06T06:03:36.519Z,935.07
2019-05-06T06:04:36.912Z,935.06
2019-05-06T06:05:36.494Z,935.08
2019-05-06T06:06:36.514Z,935.07
2019-05-06T06:07:36.479Z,935.07
2019-05-06T06:08:37.023Z,935.10
2019-05-06T06:09:36.458Z,935.07
2019-05-06T06:10:36.825Z,935.08
2019-05-06T06:11:36.473Z,935.05
2019-05-06T06:12:36.462Z,935.04
2019-05-06T06:13:36.440Z,935.03
2019-05-06T06:14:36.412Z,935.03
2019-05-06T06:15:36.415Z,934.98
2019-05-06T06:16:36.733Z,934.93
2019-05-06T06:17:36.398Z,934.96
2019-05-06T06:18:36.423Z,934.94
2019-05-06T06:19:36.446Z,934.92
2019-05-06T06:20:36.400Z,934.92
2019-05-06T06:21:36.439Z,934.93
2019-05-06T06:22:37.125Z,934.92
2019-05-06T06:23:36.353Z,934.94
2019-05-06T06:24:36.357Z,934.93
2019-05-06T06:25:36.351Z,934.93
2019-05-06T06:26:36.328Z,934.95
2019-05-06T06:27:36.382Z,934.95
2019-05-06T06:28:36.716Z,934.93
2019-05-06T06:29:36.346Z,934.92
2019-05-06T06:30:36.323Z,934.91
2019-05-06T06:31:36.311Z,934.90
2019-05-06T06:32:36.309Z,934.85
2019-05-06T06:33:36.309Z,934.88
2019-05-06T06:34:36.583Z,934.85
2019-05-06T06:35:36.291Z,934.86
2019-05-06T06:36:36.284Z,934.86
2019-05-06T06:37:36.280Z,934.87
2019-05-06T06:38:36.266Z,934.83
2019-05-06T06:39:36.236Z,934.89
2019-05-06T06:40:36.640Z,934.86
2019-05-06T06:41:36.223Z,934.86
2019-05-06T06:42:36.241Z,934.88
2019-05-06T06:43:36.230Z,934.84
2019-05-06T06:44:36.225Z,934.84
2019-05-06T06:45:36.187Z,934.79
2019-05-06T06:46:36.647Z,934.76
2019-05-06T06:47:36.193Z,934.80
2019-05-06T06:48:36.178Z,934.78
2019-05-06T06:49:36.190Z,934.79
2019-05-06T06:50:36.170Z,934.83
2019-05-06T06:51:36.150Z,934.81
2019-05-06T06:52:36.646Z,934.81
2019-05-06T06:53:36.134Z,934.80
2019-05-06T06:54:36.134Z,934.81
2019-05-06T06:55:36.116Z,934.84
2019-05-06T06:56:36.125Z,934.80
2019-05-06T06:57:36.126Z,934.80
2019-05-06T06:58:36.456Z,934.78
2019-05-06T06:59:36.119Z,934.77
2019-05-06T07:00:36.075Z,934.78
2019-05-06T07:01:36.103Z,934.76
2019-05-06T07:02:36.079Z,934.74
2019-05-06T07:03:36.061Z,934.73
2019-05-06T07:04:36.427Z,934.74
2019-05-06T07:05:36.089Z,934.71
2019-05-06T07:06:36.042Z,934.73
2019-05-06T07:07:43.709Z,934.66
2019-05-06T07:08:37.648Z,934.67
2019-05-06T07:09:36.405Z,934.67
2019-05-06T07:10:36.030Z,934.67
2019-05-06T07:11:36.011Z,934.62
2019-05-06T07:12:36.018Z,934.63
2019-05-06T07:13:35.997Z,934.62
2019-05-06T07:14:36.444Z,934.59
2019-05-06T07:15:35.960Z,934.56
2019-05-06T07:16:35.981Z,934.53
2019-05-06T07:17:35.966Z,934.49
2019-05-06T07:18:35.958Z,934.52
2019-05-06T07:19:35.946Z,934.51
2019-05-06T07:20:36.275Z,934.51
2019-05-06T07:21:36.163Z,934.56
2019-05-06T07:22:35.949Z,934.53
2019-05-06T07:23:35.907Z,934.55
2019-05-06T07:24:35.932Z,934.52
2019-05-06T07:25:36.354Z,934.50
2019-05-06T07:26:35.902Z,934.54
2019-05-06T07:27:35.888Z,934.52
2019-05-06T07:28:35.887Z,934.51
2019-05-06T07:29:35.884Z,934.51
2019-05-06T07:30:36.330Z,934.51
2019-05-06T07:31:35.875Z,934.47
2019-05-06T07:32:35.891Z,934.47
2019-05-06T07:33:35.861Z,934.43
2019-05-06T07:34:35.830Z,934.40
2019-05-06T07:35:40.469Z,934.40
2019-05-06T07:36:35.829Z,934.49
2019-05-06T07:37:35.796Z,934.51
2019-05-06T07:38:35.844Z,934.55
2019-05-06T07:39:35.814Z,934.59
2019-05-06T07:40:35.810Z,934.65
2019-05-06T07:41:36.452Z,934.67
2019-05-06T07:42:35.778Z,934.69
2019-05-06T07:43:35.755Z,934.71
2019-05-06T07:44:35.780Z,934.72
2019-05-06T07:45:35.822Z,934.71
2019-05-06T07:46:35.737Z,934.73
2019-05-06T07:47:36.233Z,934.72
2019-05-06T07:48:35.723Z,934.75
2019-05-06T07:49:35.721Z,934.74
2019-05-06T07:50:35.717Z,934.72
2019-05-06T07:51:35.718Z,934.71
2019-05-06T07:52:35.694Z,934.75
2019-05-06T07:53:36.113Z,934.75
2019-05-06T07:54:35.730Z,934.74
2019-05-06T07:55:35.676Z,934.75
2019-05-06T07:56:35.679Z,934.78
2019-05-06T07:57:35.670Z,934.78
2019-05-06T07:58:36.182Z,934.82
2019-05-06T07:59:35.669Z,934.77
2019-05-06T08:00:35.631Z,934.80
2019-05-06T08:01:35.623Z,934.81
2019-05-06T08:02:35.641Z,934.83
2019-05-06T08:03:35.603Z,934.78
2019-05-06T08:04:35.974Z,934.77
2019-05-06T08:05:35.623Z,934.73
2019-05-06T08:06:35.583Z,934.78
2019-05-06T08:07:35.603Z,934.77
2019-05-06T08:08:35.577Z,934.78
2019-05-06T08:09:35.821Z,934.80
2019-05-06T08:10:35.554Z,934.79
2019-05-06T08:11:35.556Z,934.81
2019-05-06T08:12:35.557Z,934.78
2019-05-06T08:13:35.543Z,934.78
2019-05-06T08:14:35.538Z,934.76
2019-05-06T08:15:35.821Z,934.75
2019-05-06T08:16:35.521Z,934.73
2019-05-06T08:17:35.526Z,934.73
2019-05-06T08:18:35.502Z,934.73
2019-05-06T08:19:35.507Z,934.74
2019-05-06T08:20:35.493Z,934.73
2019-05-06T08:21:35.897Z,934.77
2019-05-06T08:22:35.462Z,934.77
2019-05-06T08:23:35.460Z,934.74
2019-05-06T08:24:35.462Z,934.73
2019-05-06T08:25:35.433Z,934.71
2019-05-06T08:26:35.449Z,934.74
2019-05-06T08:27:35.688Z,934.75
2019-05-06T08:28:40.685Z,934.75
2019-05-06T08:29:35.411Z,934.77
2019-05-06T08:30:35.544Z,934.77
2019-05-06T08:31:35.405Z,934.80
2019-05-06T08:32:35.422Z,934.81
2019-05-06T08:33:35.731Z,934.79
2019-05-06T08:34:35.358Z,934.83
2019-05-06T08:35:35.366Z,934.82
2019-05-06T08:36:35.356Z,934.82
2019-05-06T08:37:35.361Z,934.86
2019-05-06T08:38:35.346Z,934.87
2019-05-06T08:39:35.607Z,934.88
2019-05-06T08:40:35.312Z,934.91
2019-05-06T08:41:35.313Z,934.91
2019-05-06T08:42:35.327Z,934.95
2019-05-06T08:43:35.292Z,934.93
2019-05-06T08:44:35.302Z,934.94
2019-05-06T08:45:35.602Z,934.95
2019-05-06T08:46:35.297Z,934.93
2019-05-06T08:47:35.287Z,934.95
2019-05-06T08:48:35.253Z,935.00
2019-05-06T08:49:35.245Z,935.03
2019-05-06T08:50:35.243Z,935.04
2019-05-06T08:51:35.639Z,935.04
2019-05-06T08:52:35.239Z,935.05
2019-05-06T08:53:35.236Z,935.08
2019-05-06T08:54:35.223Z,935.10
2019-05-06T08:55:35.218Z,935.07
2019-05-06T08:56:35.199Z,935.11
2019-05-06T08:57:35.595Z,935.08
2019-05-06T08:58:35.182Z,935.11
2019-05-06T08:59:35.181Z,935.09
2019-05-06T09:00:35.184Z,935.08
2019-05-06T09:01:35.178Z,935.07
2019-05-06T09:02:35.145Z,935.08
2019-05-06T09:03:35.463Z,935.06
2019-05-06T09:04:35.153Z,935.03
2019-05-06T09:05:35.137Z,935.08
2019-05-06T09:06:35.175Z,935.10
2019-05-06T09:07:35.109Z,935.13
2019-05-06T09:08:35.523Z,935.17
2019-05-06T09:09:35.110Z,935.22
2019-05-06T09:10:35.102Z,935.24
2019-05-06T09:11:35.098Z,935.30
2019-05-06T09:12:35.081Z,935.31
2019-05-06T09:13:35.073Z,935.30
2019-05-06T09:14:35.310Z,935.34
2019-05-06T09:15:35.051Z,935.33
2019-05-06T09:16:35.046Z,935.34
2019-05-06T09:17:35.030Z,935.31
2019-05-06T09:18:35.032Z,935.32
2019-05-06T09:19:35.319Z,935.33
2019-05-06T09:20:35.005Z,935.34
2019-05-06T09:21:34.996Z,935.32
2019-05-06T09:22:34.991Z,935.38
2019-05-06T09:23:35.002Z,935.37
2019-05-06T09:24:35.454Z,935.35
2019-05-06T09:25:34.985Z,935.35
2019-05-06T09:26:34.979Z,935.37
2019-05-06T09:27:34.974Z,935.34
2019-05-06T09:28:34.956Z,935.40
2019-05-06T09:29:34.954Z,935.45
2019-05-06T09:30:35.390Z,935.45
2019-05-06T09:31:34.938Z,935.47
2019-05-06T09:32:36.022Z,935.40
2019-05-06T09:33:34.916Z,935.44
2019-05-06T09:34:34.938Z,935.49
2019-05-06T09:35:34.911Z,935.46
2019-05-06T09:36:44.245Z,935.47
2019-05-06T09:37:34.929Z,935.53
2019-05-06T09:38:34.863Z,935.54
2019-05-06T09:39:34.856Z,935.54
2019-05-06T09:40:34.885Z,935.52
2019-05-06T09:41:34.863Z,935.52
2019-05-06T09:42:35.150Z,935.51
2019-05-06T09:43:34.832Z,935.53
2019-05-06T09:44:34.836Z,935.53
2019-05-06T09:45:34.840Z,935.53
2019-05-06T09:46:34.809Z,935.52
2019-05-06T09:47:35.164Z,935.54
2019-05-06T09:48:34.802Z,935.55
2019-05-06T09:49:34.809Z,935.58
2019-05-06T09:50:34.809Z,935.57
2019-05-06T09:51:34.755Z,935.65
2019-05-06T09:52:34.769Z,935.68
2019-05-06T09:53:35.000Z,935.69
2019-05-06T09:54:34.773Z,935.69
2019-05-06T09:55:34.755Z,935.70
2019-05-06T09:56:34.723Z,935.74
2019-05-06T09:57:34.736Z,935.77
2019-05-06T09:58:35.259Z,935.78
2019-05-06T09:59:34.757Z,935.80
2019-05-06T10:00:34.715Z,935.79
2019-05-06T10:01:34.680Z,935.79
2019-05-06T10:02:34.690Z,935.77
2019-05-06T10:03:34.671Z,935.75
2019-05-06T10:04:34.924Z,935.73
2019-05-06T10:05:34.672Z,935.72
2019-05-06T10:06:34.655Z,935.73
2019-05-06T10:07:34.650Z,935.66
2019-05-06T10:08:34.648Z,935.69
2019-05-06T10:09:34.905Z,935.71
2019-05-06T10:10:34.619Z,935.67
2019-05-06T10:11:34.608Z,935.69
2019-05-06T10:12:34.610Z,935.75
2019-05-06T10:13:34.605Z,935.81
2019-05-06T10:14:35.043Z,935.83
2019-05-06T10:15:34.575Z,935.88
2019-05-06T10:16:34.621Z,935.87
2019-05-06T10:17:34.587Z,935.86
2019-05-06T10:18:34.583Z,935.88
2019-05-06T10:19:34.994Z,935.91
2019-05-06T10:20:34.557Z,935.91
2019-05-06T10:21:34.544Z,935.91
2019-05-06T10:22:34.559Z,935.93
2019-05-06T10:23:34.601Z,935.92
2019-05-06T10:24:34.568Z,935.94
2019-05-06T10:25:34.819Z,935.93
2019-05-06T10:26:34.497Z,935.95
2019-05-06T10:27:34.495Z,935.93
2019-05-06T10:28:34.545Z,935.89
2019-05-06T10:29:34.478Z,935.92
2019-05-06T10:30:34.483Z,935.96
2019-05-06T10:31:34.900Z,935.91
2019-05-06T10:32:34.504Z,935.89
2019-05-06T10:33:34.451Z,935.90
2019-05-06T10:34:34.478Z,935.92
2019-05-06T10:35:34.444Z,935.94
2019-05-06T10:36:34.422Z,935.95
2019-05-06T10:37:34.686Z,935.89
2019-05-06T10:38:34.410Z,935.92
2019-05-06T10:39:34.410Z,935.90
2019-05-06T10:40:34.401Z,935.89
2019-05-06T10:41:34.402Z,935.95
2019-05-06T10:42:34.379Z,935.97
2019-05-06T10:43:34.735Z,935.95
2019-05-06T10:44:34.360Z,935.93
2019-05-06T10:45:34.355Z,935.92
2019-05-06T10:46:34.334Z,935.92
2019-05-06T10:47:34.341Z,935.92
2019-05-06T10:48:34.347Z,935.95
2019-05-06T10:49:34.667Z,935.98
2019-05-06T10:50:34.330Z,936.00
2019-05-06T10:51:34.311Z,935.98
2019-05-06T10:52:34.323Z,936.01
2019-05-06T10:53:34.286Z,935.99
2019-05-06T10:54:34.289Z,936.04
2019-05-06T10:55:34.606Z,935.99
2019-05-06T10:56:49.521Z,935.96
2019-05-06T10:57:34.273Z,935.97
2019-05-06T10:58:34.276Z,936.00
2019-05-06T10:59:34.272Z,936.00
2019-05-06T11:00:34.244Z,936.03
2019-05-06T11:01:34.491Z,936.07
2019-05-06T11:02:34.243Z,936.08
2019-05-06T11:03:34.219Z,936.10
2019-05-06T11:04:34.204Z,936.13
2019-05-06T11:05:34.225Z,936.14
2019-05-06T11:06:34.660Z,936.10
2019-05-06T11:07:35.298Z,936.14
2019-05-06T11:08:34.173Z,936.15
2019-05-06T11:09:34.182Z,936.15
2019-05-06T11:10:40.773Z,936.19
2019-05-06T11:11:38.484Z,936.14
2019-05-06T11:12:34.618Z,936.14
2019-05-06T11:13:34.157Z,936.17
2019-05-06T11:14:34.136Z,936.19
2019-05-06T11:15:34.142Z,936.20
2019-05-06T11:16:34.133Z,936.22
2019-05-06T11:17:34.148Z,936.16
2019-05-06T11:18:34.361Z,936.19
2019-05-06T11:19:34.122Z,936.19
2019-05-06T11:20:34.124Z,936.23
2019-05-06T11:21:34.105Z,936.17
2019-05-06T11:22:34.098Z,936.16
2019-05-06T11:23:34.079Z,936.17
2019-05-06T11:24:34.542Z,936.14
2019-05-06T11:25:34.044Z,936.16
2019-05-06T11:26:34.065Z,936.17
2019-05-06T11:27:37.548Z,936.19
2019-05-06T11:28:35.297Z,936.15
2019-05-06T11:29:36.720Z,936.19
2019-05-06T11:30:34.024Z,936.15
2019-05-06T11:31:34.012Z,936.15
2019-05-06T11:32:34.011Z,936.09
2019-05-06T11:33:34.007Z,936.12
2019-05-06T11:34:34.005Z,936.08
2019-05-06T11:35:34.395Z,936.07
2019-05-06T11:36:33.995Z,936.07
2019-05-06T11:37:45.807Z,936.07
2019-05-06T11:38:33.996Z,936.03
2019-05-06T11:39:33.959Z,936.06
2019-05-06T11:40:33.983Z,936.02
2019-05-06T11:41:34.006Z,936.00
2019-05-06T11:42:35.916Z,936.02
2019-05-06T11:43:33.935Z,936.05
2019-05-06T11:44:33.963Z,936.02
2019-05-06T11:45:33.916Z,935.96
2019-05-06T11:46:33.962Z,936.02
2019-05-06T11:47:33.936Z,936.05
2019-05-06T11:48:33.915Z,936.07
2019-05-06T11:49:33.936Z,936.11
2019-05-06T11:50:33.925Z,936.13
2019-05-06T11:51:33.913Z,936.13
2019-05-06T11:52:34.596Z,936.14
2019-05-06T11:53:33.891Z,936.13
2019-05-06T11:54:33.922Z,936.17
2019-05-06T11:55:38.641Z,936.15
2019-05-06T11:56:47.583Z,936.13
2019-05-06T11:57:33.879Z,936.12
2019-05-06T11:58:33.882Z,936.13
2019-05-06T11:59:33.847Z,936.12
2019-05-06T12:00:35.908Z,936.09
2019-05-06T12:01:33.845Z,936.10
2019-05-06T12:02:33.896Z,936.12
2019-05-06T12:03:33.829Z,936.11
2019-05-06T12:04:33.862Z,936.13
2019-05-06T12:05:33.842Z,936.19
2019-05-06T12:06:33.852Z,936.20
2019-05-06T12:07:33.836Z,936.19
2019-05-06T12:08:33.835Z,936.21
2019-05-06T12:09:33.824Z,936.23
2019-05-06T12:10:33.796Z,936.23
2019-05-06T12:11:33.794Z,936.29
2019-05-06T12:12:33.787Z,936.35
2019-05-06T12:13:33.886Z,936.37
2019-05-06T12:14:33.778Z,936.34
2019-05-06T12:15:33.836Z,936.34
2019-05-06T12:16:33.809Z,936.34
2019-05-06T12:17:33.785Z,936.37
2019-05-06T12:18:33.762Z,936.34
2019-05-06T12:19:33.757Z,936.35
2019-05-06T12:20:33.748Z,936.31
2019-05-06T12:21:33.810Z,936.29
2019-05-06T12:22:33.747Z,936.27
2019-05-06T12:23:35.389Z,936.22
2019-05-06T12:24:33.764Z,936.28
2019-05-06T12:25:33.753Z,936.29
2019-05-06T12:26:33.749Z,936.32
2019-05-06T12:27:33.728Z,936.33
2019-05-06T12:28:33.734Z,936.34